Latest Weather Observations for Yanakie

IDV60801

Issued at 5:31 pm EST Friday 28 August 2015 (issued every 30 minutes, with the page automatically refreshed every 10 minutes)

About weather observations | Map of weather stations | Latest weather observations for VIC | Other Formats
Station Details ID: 085301 Name: YANAKIE Lat: -38.81 Lon: 146.19 Height: 13.3 m
Data from the previous 72 hours. | See also: Recent months at Yanakie
Date/Time
EST
Temp
°C
App
Temp
°C
Dew
Point
Rel
Hum
%
Delta-T
°C
Wind Press
QNH
hPa
Press
MSL
hPa
Rain
since 9 am
mm
Dir
 
Spd
km/h
Gust
km/h
Spd
kts
Gust
kts
28/05:30pm 9.1 6.3 5.3 77 1.7 S 9 15 5 8 1024.0 1024.0 0.4
28/05:00pm 11.3 9.2 6.8 74 2.1 SSW 7 13 4 7 1023.8 1023.8 0.4
28/04:30pm 11.9 9.5 6.8 71 2.4 S 9 15 5 8 1023.5 1023.5 0.4
28/04:00pm 12.1 9.1 7.8 75 2.1 SSE 13 20 7 11 1023.5 1023.5 0.4
28/03:30pm 12.2 8.4 7.7 74 2.2 S 17 24 9 13 1023.6 1023.6 0.4
28/03:00pm 12.4 8.3 7.7 73 2.3 S 19 24 10 13 1023.7 1023.7 0.4
28/02:30pm 13.4 9.6 9.1 75 2.2 S 19 26 10 14 1023.6 1023.6 0.4
28/02:00pm 11.9 8.1 7.6 75 2.1 S 17 22 9 12 1023.6 1023.6 0.4
28/01:30pm 13.0 10.0 9.1 77 2.0 SSW 15 20 8 11 1023.4 1023.4 0.4
28/01:00pm 12.4 9.3 8.7 78 1.8 SSW 15 22 8 12 1023.7 1023.7 0.4
28/12:30pm 13.1 10.3 9.9 81 1.6 S 15 22 8 12 1024.0 1024.0 0.4
28/12:00pm 12.6 9.9 10.3 86 1.2 SSW 15 20 8 11 1024.3 1024.3 0.4
28/11:30am 12.6 9.7 11.0 90 0.8 SSW 17 24 9 13 1024.5 1024.5 0.4
28/11:00am 14.0 12.2 13.2 95 0.4 SSW 15 24 8 13 1024.5 1024.5 0.4
28/10:30am 11.8 10.1 11.2 96 0.3 SSW 11 17 6 9 1024.5 1024.5 0.4
28/10:00am 11.4 10.0 10.8 96 0.3 S 9 15 5 8 1024.4 1024.4 0.4
28/09:30am 9.9 8.1 9.3 96 0.3 SSE 9 15 5 8 1024.2 1024.2 0.4
28/09:00am 9.5 6.0 8.9 96 0.3 S 17 26 9 14 1024.1 1024.1 5.8
28/08:30am 10.7 7.2 10.1 96 0.3 SSW 19 24 10 13 1023.6 1023.6 4.4
28/08:00am 10.6 6.0 9.8 95 0.4 SSW 24 33 13 18 1023.2 1023.2 4.0
28/07:30am 10.5 5.9 9.7 95 0.4 SW 24 32 13 17 1023.0 1023.0 4.0
28/07:00am 10.5 6.8 9.6 94 0.4 SW 19 24 10 13 1022.7 1022.7 4.0
28/06:30am 10.3 6.4 9.4 94 0.4 SW 20 28 11 15 1022.4 1022.4 3.6
28/06:00am 10.0 6.2 9.1 94 0.4 WSW 19 24 10 13 1022.3 1022.3 3.6
28/05:30am 9.1 5.5 8.2 94 0.4 SW 17 20 9 11 1022.0 1022.0 3.6
28/05:00am 8.8 5.0 7.7 93 0.5 SW 17 20 9 11 1021.8 1021.8 3.6
28/04:30am 9.4 5.5 8.5 94 0.4 SW 19 24 10 13 1021.8 1021.8 3.6
28/04:00am 9.9 6.5 9.0 94 0.4 SW 17 20 9 11 1021.8 1021.8 3.6
28/03:30am 9.9 6.5 9.0 94 0.4 SW 17 22 9 12 1021.7 1021.7 3.6
28/03:00am 9.8 6.0 8.9 94 0.4 SW 19 24 10 13 1021.8 1021.8 3.6
28/02:30am 9.7 6.6 8.9 95 0.4 SW 15 20 8 11 1021.8 1021.8 3.6
28/02:00am 9.6 6.5 8.8 95 0.4 SW 15 20 8 11 1021.8 1021.8 3.6
28/01:30am 10.1 6.4 9.3 95 0.4 SW 19 24 10 13 1022.0 1022.0 3.6
28/01:00am 10.1 6.2 9.5 96 0.3 SW 20 26 11 14 1021.9 1021.9 3.6
28/12:30am 10.1 5.9 9.6 97 0.3 SW 22 28 12 15 1021.8 1021.8 3.6
28/12:00am 9.4 5.4 8.9 97 0.2 SW 20 28 11 15 1021.6 1021.6 3.6
 
Date/Time
EST
Temp
°C
App
Temp
°C
Dew
Point
Rel
Hum
%
Delta-T
°C
Wind Press
QNH
hPa
Press
MSL
hPa
Rain
since 9 am
mm
Dir
 
Spd
km/h
Gust
km/h
Spd
kts
Gust
kts
27/11:30pm 9.3 5.8 8.8 97 0.2 SSW 17 22 9 12 1021.7 1021.7 3.6
27/11:00pm 9.5 5.7 9.0 97 0.2 SSW 19 26 10 14 1021.6 1021.6 3.6
27/10:30pm 9.7 6.7 9.4 98 0.1 SW 15 19 8 10 1021.6 1021.6 3.6
27/10:00pm 9.8 6.4 9.3 97 0.2 SW 17 20 9 11 1021.6 1021.6 3.6
27/09:30pm 9.2 6.8 8.7 97 0.2 SW 11 15 6 8 1021.7 1021.7 3.6
27/09:00pm 9.7 6.7 9.2 97 0.2 SSW 15 19 8 10 1021.6 1021.6 3.6
27/08:30pm 10.0 7.1 9.5 97 0.2 SSW 15 20 8 11 1021.4 1021.4 3.6
27/08:00pm 9.9 7.7 9.4 97 0.2 SSW 11 15 6 8 1021.2 1021.2 3.6
27/07:30pm 10.0 8.6 9.4 96 0.3 S 7 9 4 5 1021.0 1021.0 3.6
27/07:00pm 10.4 8.7 9.8 96 0.3 S 9 15 5 8 1020.8 1020.8 3.6
27/06:30pm 10.8 8.4 10.2 96 0.3 S 13 19 7 10 1020.6 1020.6 3.6
27/06:00pm 11.1 8.8 10.5 96 0.3 S 13 20 7 11 1020.3 1020.3 3.6
27/05:30pm 11.3 8.7 10.7 96 0.3 S 15 22 8 12 1019.9 1019.9 3.6
27/05:00pm 11.6 9.5 11.0 96 0.3 S 13 20 7 11 1019.5 1019.5 3.6
27/04:30pm 11.8 9.3 11.2 96 0.3 S 15 22 8 12 1019.2 1019.2 3.6
27/04:00pm 12.0 9.6 11.4 96 0.3 S 15 24 8 13 1018.9 1018.9 3.6
27/03:30pm 12.3 10.0 11.7 96 0.3 S 15 22 8 12 1018.8 1018.8 3.6
27/03:00pm 12.8 11.0 12.2 96 0.3 S 13 20 7 11 1018.8 1018.8 3.6
27/02:30pm 13.3 12.4 12.7 96 0.3 S 9 15 5 8 1018.6 1018.6 3.6
27/02:00pm 13.6 13.4 13.1 97 0.3 SE 6 11 3 6 1018.7 1018.7 3.6
27/01:30pm 13.2 12.3 12.7 97 0.3 SE 9 13 5 7 1018.8 1018.8 3.6
27/01:00pm 12.7 11.7 12.4 98 0.2 SSE 9 17 5 9 1018.8 1018.8 3.6
27/12:30pm 12.7 12.3 12.4 98 0.2 SE 6 9 3 5 1019.0 1019.0 3.6
27/12:00pm 13.1 11.9 12.8 98 0.2 S 11 17 6 9 1019.2 1019.2 2.2
27/11:30am 14.0 12.7 13.7 98 0.2 SSW 13 19 7 10 1019.8 1019.8 2.0
27/11:00am 13.0 12.2 12.8 99 0.1 SSW 9 13 5 7 1020.1 1020.1 2.0
27/10:30am 12.2 11.1 11.9 98 0.2 SSW 9 13 5 7 1020.5 1020.5 1.8
27/10:00am 12.2 11.5 11.9 98 0.2 S 7 11 4 6 1020.7 1020.7 1.4
27/09:30am 12.2 11.5 11.9 98 0.2 SSE 7 9 4 5 1020.9 1020.9 0.6
27/09:00am 12.3 12.2 12.0 98 0.2 SSE 4 6 2 3 1021.2 1021.2 0.2
27/08:30am 12.0 12.2 11.7 98 0.2 ESE 2 7 1 4 1021.3 1021.3 0.0
27/08:00am 11.7 12.1 11.4 98 0.2 CALM 0 0 0 0 1021.2 1021.2 0.0
27/07:30am 11.5 11.9 11.2 98 0.2 CALM 0 0 0 0 1020.9 1020.9 0.0
27/07:00am 11.1 10.6 10.6 97 0.3 ENE 4 6 2 3 1020.7 1020.7 0.0
27/06:30am 10.8 9.8 10.3 97 0.3 E 6 9 3 5 1020.6 1020.6 0.0
27/06:00am 11.0 9.5 10.5 97 0.3 ENE 9 17 5 9 1020.4 1020.4 0.0
27/05:30am 11.1 9.6 10.5 96 0.3 ENE 9 15 5 8 1020.5 1020.5 0.0
27/05:00am 10.8 8.8 10.2 96 0.3 ENE 11 15 6 8 1020.5 1020.5 0.0
27/04:30am 10.5 9.2 9.9 96 0.3 E 7 11 4 6 1020.5 1020.5 0.0
27/04:00am 10.5 9.2 9.9 96 0.3 E 7 11 4 6 1020.7 1020.7 0.0
27/03:30am 10.1 8.6 9.3 95 0.4 E 7 13 4 7 1020.9 1020.9 0.0
27/03:00am 10.6 8.5 9.8 95 0.4 E 11 15 6 8 1021.2 1021.2 0.0
27/02:30am 10.6 8.9 9.8 95 0.4 E 9 13 5 7 1021.6 1021.6 0.0
27/02:00am 10.4 8.6 9.6 95 0.4 E 9 15 5 8 1021.9 1021.9 0.0
27/01:30am 10.4 8.3 9.6 95 0.4 E 11 17 6 9 1022.1 1022.1 0.0
27/01:00am 10.4 8.6 9.6 95 0.4 E 9 15 5 8 1022.5 1022.5 0.0
27/12:30am 10.0 8.1 9.1 94 0.4 E 9 15 5 8 1022.9 1022.9 0.0
27/12:00am 10.1 8.6 9.0 93 0.5 E 7 13 4 7 1023.1 1023.1 0.0
 
Date/Time
EST
Temp
°C
App
Temp
°C
Dew
Point
Rel
Hum
%
Delta-T
°C
Wind Press
QNH
hPa
Press
MSL
hPa
Rain
since 9 am
mm
Dir
 
Spd
km/h
Gust
km/h
Spd
kts
Gust
kts
26/11:30pm 10.3 8.4 9.2 93 0.5 ENE 9 13 5 7 1023.5 1023.5 0.0
26/11:00pm 10.3 8.4 9.1 92 0.6 E 9 13 5 7 1023.9 1023.9 0.0
26/10:30pm 10.4 8.1 9.0 91 0.7 ENE 11 17 6 9 1024.0 1024.0 0.0
26/10:00pm 10.6 8.0 9.2 91 0.7 ENE 13 20 7 11 1024.2 1024.2 0.0
26/09:30pm 10.7 8.0 9.1 90 0.8 ENE 13 19 7 10 1024.5 1024.5 0.0
26/09:00pm 10.7 7.7 9.1 90 0.8 ENE 15 20 8 11 1024.5 1024.5 0.0
26/08:30pm 10.8 7.4 9.2 90 0.8 ENE 17 24 9 13 1024.5 1024.5 0.0
26/08:00pm 10.9 7.5 9.3 90 0.8 ENE 17 24 9 13 1024.5 1024.5 0.0
26/07:30pm 11.0 7.7 9.4 90 0.8 ENE 17 24 9 13 1024.4 1024.4 0.0
26/07:00pm 11.1 7.8 9.7 91 0.7 ENE 17 22 9 12 1024.3 1024.3 0.0
26/06:30pm 11.4 9.0 10.0 91 0.7 E 13 20 7 11 1024.2 1024.2 0.0
26/06:00pm 11.4 8.9 9.7 89 0.9 E 13 24 7 13 1024.2 1024.2 0.0
26/05:30pm 11.6 8.7 9.5 87 1.1 E 15 26 8 14 1024.2 1024.2 0.0
26/05:00pm 11.9 8.6 9.6 86 1.2 ENE 17 26 9 14 1024.2 1024.2 0.0
26/04:30pm 12.2 8.9 9.4 83 1.4 E 17 26 9 14 1024.1 1024.1 0.0
26/04:00pm 12.2 11.0 9.6 84 1.3 SE 6 28 3 15 1024.1 1024.1 0.0
26/03:30pm 12.4 8.7 9.6 83 1.4 E 19 35 10 19 1024.2 1024.2 0.0
26/03:00pm 12.6 8.7 9.4 81 1.6 E 20 30 11 16 1024.3 1024.3 0.0
26/02:30pm 12.5 8.5 9.0 79 1.8 E 20 32 11 17 1024.6 1024.6 0.0
26/02:00pm 12.5 8.5 9.0 79 1.7 E 20 32 11 17 1024.8 1024.8 0.0
26/01:30pm 12.6 8.8 8.9 78 1.9 E 19 32 10 17 1025.1 1025.1 0.0
26/01:00pm 13.0 9.0 8.9 76 2.0 E 20 35 11 19 1025.6 1025.6 0.0
26/12:30pm 12.6 8.6 8.3 75 2.1 E 19 32 10 17 1026.1 1026.1 0.0
26/12:00pm 13.3 8.8 8.4 72 2.4 E 22 33 12 18 1026.7 1026.7 0.0
26/11:30am 13.9 9.6 7.7 66 3.1 ENE 20 28 11 15 1027.1 1027.1 0.0
26/11:00am 13.8 9.4 7.6 66 3.0 ENE 20 32 11 17 1027.4 1027.4 0.0
26/10:30am 13.2 9.6 8.3 72 2.4 E 17 26 9 14 1027.5 1027.5 0.0
26/10:00am 13.0 9.8 9.8 81 1.6 ENE 17 30 9 16 1027.7 1027.7 0.0
26/09:30am 11.7 9.1 9.4 86 1.2 ENE 13 20 7 11 1027.9 1027.9 0.0
26/09:00am 11.4 9.3 9.7 89 0.9 NE 11 17 6 9 1027.8 1027.8 0.0
26/08:30am 10.7 9.3 9.5 92 0.6 NE 7 11 4 6 1027.9 1027.9 0.0
26/08:00am 9.4 8.3 8.5 94 0.4 ENE 4 7 2 4 1028.0 1028.0 0.0
26/07:30am 6.5 4.7 5.6 94 0.4 NNE 4 6 2 3 1028.1 1028.1 0.0
26/07:00am 4.6 3.2 3.4 92 0.5 CALM 0 0 0 0 1027.8 1027.8 0.0
26/06:30am 4.4 2.2 3.1 91 0.5 WNW 4 6 2 3 1027.6 1027.6 0.0
26/06:00am 4.1 2.2 2.6 90 0.6 WSW 2 2 1 1 1027.6 1027.6 0.0
26/05:30am 5.0 3.6 3.3 89 0.7 CALM 0 0 0 0 1027.4 1027.4 0.0
26/05:00am 5.6 4.2 3.6 87 0.8 CALM 0 2 0 1 1027.5 1027.5 0.0
26/04:30am 7.9 6.2 5.7 86 1.0 ENE 4 6 2 3 1027.6 1027.6 0.0
26/04:00am 8.5 6.4 6.0 84 1.1 ESE 6 9 3 5 1027.6 1027.6 0.0
26/03:30am 8.5 5.8 5.6 82 1.3 ESE 9 15 5 8 1027.6 1027.6 0.0
26/03:00am 8.8 5.7 5.7 81 1.4 ESE 11 17 6 9 1027.8 1027.8 0.0
26/02:30am 9.0 5.6 5.7 80 1.5 ESE 13 20 7 11 1028.1 1028.1 0.0
26/02:00am 8.9 5.8 5.6 80 1.5 ESE 11 19 6 10 1028.2 1028.2 0.0
26/01:30am 9.0 5.4 5.0 76 1.8 ESE 13 19 7 10 1028.4 1028.4 0.0
26/01:00am 9.8 5.9 5.2 73 2.1 ESE 15 22 8 12 1028.5 1028.5 0.0
26/12:30am 9.9 6.1 5.7 75 1.9 ESE 15 22 8 12 1028.5 1028.5 0.0
26/12:00am 10.4 6.6 5.8 73 2.1 ESE 15 26 8 14 1028.6 1028.6 0.0
 
Date/Time
EST
Temp
°C
App
Temp
°C
Dew
Point
Rel
Hum
%
Delta-T
°C
Wind Press
QNH
hPa
Press
MSL
hPa
Rain
since 9 am
mm
Dir
 
Spd
km/h
Gust
km/h
Spd
kts
Gust
kts
25/11:30pm 10.4 6.5 5.2 70 2.4 ESE 15 26 8 14 1028.7 1028.7 0.0
25/11:00pm 10.1 7.1 5.9 75 1.9 ESE 11 19 6 10 1028.7 1028.7 0.0
25/10:30pm 10.0 7.1 6.7 80 1.5 ESE 11 17 6 9 1029.0 1029.0 0.0
25/10:00pm 9.7 6.6 7.3 85 1.1 ESE 13 17 7 9 1028.9 1028.9 0.0
25/09:30pm 9.7 6.7 7.8 88 0.9 ESE 13 19 7 10 1028.8 1028.8 0.0
25/09:00pm 8.8 6.9 7.6 92 0.6 ESE 7 11 4 6 1028.9 1028.9 0.0
25/08:30pm 8.8 6.5 7.6 92 0.6 SE 9 13 5 7 1028.7 1028.7 0.0
25/08:00pm 9.4 6.9 8.2 92 0.6 ESE 11 17 6 9 1028.5 1028.5 0.0
25/07:30pm 9.7 7.3 8.5 92 0.6 ESE 11 17 6 9 1028.4 1028.4 0.0
25/07:00pm 9.8 7.3 8.4 91 0.7 ESE 11 15 6 8 1028.2 1028.2 0.0
25/06:30pm 10.2 7.8 8.5 89 0.8 SE 11 15 6 8 1028.0 1028.0 0.0
25/06:00pm 10.5 8.4 8.4 87 1.0 ESE 9 13 5 7 1027.7 1027.7 0.0

Other Formats:

Comma delimited format used in spreadsheet applications
http://www.bom.gov.au/fwo/IDV60801/IDV60801.94911.axf

JavaScript Object Notation format (JSON) in row-major order
http://www.bom.gov.au/fwo/IDV60801/IDV60801.94911.json